createdAt,value
2023-03-23T00:00:39.280Z,74.62
2023-03-23T00:01:39.296Z,74.73
2023-03-23T00:02:39.242Z,74.73
2023-03-23T00:03:39.233Z,74.62
2023-03-23T00:04:39.234Z,74.73
2023-03-23T00:05:39.721Z,74.83
2023-03-23T00:06:39.226Z,74.83
2023-03-23T00:07:39.324Z,74.93
2023-03-23T00:08:39.207Z,74.93
2023-03-23T00:09:39.165Z,75.07
2023-03-23T00:10:39.183Z,75.16
2023-03-23T00:11:39.158Z,75.16
2023-03-23T00:12:39.165Z,75.27
2023-03-23T00:13:39.139Z,75.16
2023-03-23T00:14:39.141Z,75.27
2023-03-23T00:15:39.208Z,75.27
2023-03-23T00:16:39.114Z,75.27
2023-03-23T00:17:39.085Z,75.27
2023-03-23T00:18:39.225Z,75.37
2023-03-23T00:19:39.070Z,75.48
2023-03-23T00:20:39.060Z,75.37
2023-03-23T00:21:39.048Z,75.37
2023-03-23T00:22:39.049Z,75.48
2023-03-23T00:23:39.052Z,75.37
2023-03-23T00:24:39.063Z,75.37
2023-03-23T00:25:39.298Z,75.57
2023-03-23T00:26:48.282Z,75.48
2023-03-23T00:27:39.007Z,75.48
2023-03-23T00:28:38.994Z,75.48
2023-03-23T00:29:39.010Z,75.57
2023-03-23T00:30:38.957Z,75.57
2023-03-23T00:31:38.953Z,75.57
2023-03-23T00:32:38.942Z,75.48
2023-03-23T00:33:38.922Z,75.61
2023-03-23T00:34:38.938Z,75.61
2023-03-23T00:35:38.957Z,75.48
2023-03-23T00:36:38.942Z,75.61
2023-03-23T00:37:38.934Z,75.48
2023-03-23T00:38:38.902Z,75.57
2023-03-23T00:39:38.867Z,75.61
2023-03-23T00:40:38.870Z,75.61
2023-03-23T00:41:38.835Z,75.41
2023-03-23T00:42:38.834Z,75.61
2023-03-23T00:43:38.838Z,75.41
2023-03-23T00:44:38.851Z,75.41
2023-03-23T00:45:38.973Z,75.41
2023-03-23T00:46:38.809Z,75.41
2023-03-23T00:47:38.775Z,75.41
2023-03-23T00:48:38.815Z,75.51
2023-03-23T00:49:38.765Z,75.61
2023-03-23T00:50:39.181Z,75.51
2023-03-23T00:51:38.751Z,75.51
2023-03-23T00:52:38.721Z,75.51
2023-03-23T00:53:38.711Z,75.51
2023-03-23T00:54:38.706Z,75.51
2023-03-23T00:55:38.793Z,75.51
2023-03-23T00:56:38.692Z,75.51
2023-03-23T00:57:38.693Z,75.51
2023-03-23T00:58:38.660Z,75.61
2023-03-23T00:59:38.662Z,75.51
2023-03-23T01:00:38.677Z,75.51
2023-03-23T01:01:38.651Z,75.61
2023-03-23T01:02:38.612Z,75.61
2023-03-23T01:03:38.616Z,75.61
2023-03-23T01:04:38.596Z,75.61
2023-03-23T01:05:38.864Z,75.71
2023-03-23T01:06:38.564Z,75.61
2023-03-23T01:07:38.585Z,75.61
2023-03-23T01:08:38.550Z,75.71
2023-03-23T01:09:38.551Z,75.51
2023-03-23T01:10:38.530Z,75.61
2023-03-23T01:11:38.522Z,75.71
2023-03-23T01:12:38.646Z,75.71
2023-03-23T01:13:38.495Z,75.75
2023-03-23T01:14:38.481Z,75.75
2023-03-23T01:15:38.489Z,75.75
2023-03-23T01:16:38.476Z,75.85
2023-03-23T01:17:38.473Z,75.85
2023-03-23T01:18:38.436Z,75.95
2023-03-23T01:19:38.433Z,76.16
2023-03-23T01:20:38.417Z,76.26
2023-03-23T01:21:38.412Z,76.26
2023-03-23T01:22:38.416Z,76.36
2023-03-23T01:23:38.401Z,76.36
2023-03-23T01:24:38.390Z,76.36
2023-03-23T01:25:38.439Z,76.36
2023-03-23T01:26:38.362Z,76.36
2023-03-23T01:27:38.386Z,76.36
2023-03-23T01:28:38.374Z,76.36
2023-03-23T01:29:38.331Z,76.50
2023-03-23T01:30:38.347Z,76.46
2023-03-23T01:31:38.315Z,76.50
2023-03-23T01:32:38.314Z,76.50
2023-03-23T01:33:38.323Z,76.50
2023-03-23T01:34:38.279Z,76.60
2023-03-23T01:35:38.369Z,76.60
2023-03-23T01:36:38.243Z,76.70
2023-03-23T01:37:38.254Z,76.70
2023-03-23T01:38:38.242Z,76.70
2023-03-23T01:39:38.230Z,76.70
2023-03-23T01:40:38.243Z,76.81
2023-03-23T01:41:38.224Z,76.81
2023-03-23T01:42:38.199Z,76.81
2023-03-23T01:43:38.182Z,76.70
2023-03-23T01:44:38.178Z,76.90
2023-03-23T01:45:38.179Z,76.90
2023-03-23T01:46:38.253Z,77.01
2023-03-23T01:47:38.153Z,77.01
2023-03-23T01:48:38.128Z,77.01
2023-03-23T01:49:38.128Z,77.01
2023-03-23T01:50:38.110Z,77.11
2023-03-23T01:51:42.039Z,77.01
2023-03-23T01:52:38.097Z,77.01
2023-03-23T01:53:38.126Z,77.11
2023-03-23T01:54:38.093Z,77.01
2023-03-23T01:55:38.104Z,77.11
2023-03-23T01:56:38.040Z,77.01
2023-03-23T01:57:38.045Z,77.01
2023-03-23T01:58:38.020Z,77.01
2023-03-23T01:59:38.055Z,77.01
2023-03-23T02:00:38.023Z,77.01
2023-03-23T02:01:37.993Z,77.01
2023-03-23T02:02:38.002Z,77.01
2023-03-23T02:03:37.987Z,77.11
2023-03-23T02:04:37.960Z,77.11
2023-03-23T02:05:37.961Z,77.01
2023-03-23T02:06:37.941Z,76.90
2023-03-23T02:07:37.950Z,76.90
2023-03-23T02:08:37.983Z,76.81
2023-03-23T02:09:37.924Z,76.81
2023-03-23T02:10:37.899Z,76.70
2023-03-23T02:11:37.909Z,76.81
2023-03-23T02:12:37.881Z,76.70
2023-03-23T02:13:37.891Z,76.70
2023-03-23T02:14:37.850Z,76.70
2023-03-23T02:15:37.886Z,76.60
2023-03-23T02:16:37.851Z,76.81
2023-03-23T02:17:37.859Z,76.60
2023-03-23T02:18:37.807Z,76.60
2023-03-23T02:19:37.809Z,76.70
2023-03-23T02:20:37.843Z,76.60
2023-03-23T02:21:37.796Z,76.60
2023-03-23T02:22:37.804Z,76.70
2023-03-23T02:23:37.757Z,76.50
2023-03-23T02:24:37.743Z,76.60
2023-03-23T02:25:37.745Z,76.50
2023-03-23T02:26:37.725Z,76.60
2023-03-23T02:27:37.743Z,76.50
2023-03-23T02:28:37.740Z,76.50
2023-03-23T02:29:37.700Z,76.50
2023-03-23T02:30:37.690Z,76.40
2023-03-23T02:31:37.684Z,76.40
2023-03-23T02:32:37.676Z,76.29
2023-03-23T02:33:37.669Z,76.29
2023-03-23T02:34:37.640Z,76.19
2023-03-23T02:35:37.658Z,76.19
2023-03-23T02:36:37.617Z,75.99
2023-03-23T02:37:37.622Z,76.09
2023-03-23T02:38:37.613Z,75.89
2023-03-23T02:39:37.589Z,75.99
2023-03-23T02:40:37.572Z,75.85
2023-03-23T02:41:37.602Z,75.89
2023-03-23T02:42:37.576Z,75.65
2023-03-23T02:43:37.562Z,75.65
2023-03-23T02:44:37.539Z,75.54
2023-03-23T02:45:37.533Z,75.54
2023-03-23T02:46:37.508Z,75.54
2023-03-23T02:47:37.544Z,75.44
2023-03-23T02:48:37.533Z,75.34
2023-03-23T02:49:37.483Z,75.54
2023-03-23T02:50:37.474Z,75.65
2023-03-23T02:51:43.298Z,76.06
2023-03-23T02:52:37.484Z,76.36
2023-03-23T02:53:37.444Z,76.06
2023-03-23T02:54:37.428Z,76.26
2023-03-23T02:55:37.429Z,76.16
2023-03-23T02:56:37.424Z,76.56
2023-03-23T02:57:40.308Z,76.77
2023-03-23T02:58:37.381Z,76.56
2023-03-23T02:59:37.398Z,76.67
2023-03-23T03:00:37.373Z,76.67
2023-03-23T03:01:37.351Z,76.77
2023-03-23T03:02:37.372Z,77.08
2023-03-23T03:03:37.341Z,77.48
2023-03-23T03:04:37.345Z,76.77
2023-03-23T03:05:37.314Z,76.97
2023-03-23T03:06:37.301Z,77.18
2023-03-23T03:07:37.322Z,77.28
2023-03-23T03:08:37.285Z,76.87
2023-03-23T03:09:37.285Z,76.97
2023-03-23T03:10:37.253Z,77.18
2023-03-23T03:11:37.247Z,76.97
2023-03-23T03:12:44.982Z,76.97
2023-03-23T03:13:37.251Z,76.87
2023-03-23T03:14:40.690Z,77.08
2023-03-23T03:15:37.231Z,76.87
2023-03-23T03:16:37.230Z,76.87
2023-03-23T03:17:37.200Z,76.67
2023-03-23T03:18:37.181Z,76.77
2023-03-23T03:19:37.191Z,76.77
2023-03-23T03:20:37.157Z,76.97
2023-03-23T03:21:37.150Z,76.67
2023-03-23T03:22:37.204Z,76.87
2023-03-23T03:23:37.142Z,76.77
2023-03-23T03:24:37.124Z,76.97
2023-03-23T03:25:37.236Z,76.46
2023-03-23T03:26:37.109Z,76.67
2023-03-23T03:27:37.118Z,76.46
2023-03-23T03:28:37.101Z,76.43
2023-03-23T03:29:37.096Z,76.32
2023-03-23T03:30:37.058Z,76.22
2023-03-23T03:31:37.046Z,76.43
2023-03-23T03:32:37.076Z,76.73
2023-03-23T03:33:37.038Z,76.53
2023-03-23T03:34:37.025Z,76.32
2023-03-23T03:35:37.088Z,76.32
2023-03-23T03:36:36.981Z,76.53
2023-03-23T03:37:37.018Z,76.22
2023-03-23T03:38:36.974Z,76.22
2023-03-23T03:39:36.984Z,76.32
2023-03-23T03:40:36.951Z,76.53
2023-03-23T03:41:36.947Z,76.32
2023-03-23T03:42:36.942Z,76.63
2023-03-23T03:43:36.956Z,76.12
2023-03-23T03:44:36.967Z,76.22
2023-03-23T03:45:36.900Z,75.92
2023-03-23T03:46:36.890Z,75.71
2023-03-23T03:47:36.968Z,75.92
2023-03-23T03:48:36.885Z,76.22
2023-03-23T03:49:37.004Z,76.12
2023-03-23T03:50:36.837Z,76.32
2023-03-23T03:51:36.825Z,76.84
2023-03-23T03:52:36.848Z,77.45
2023-03-23T03:53:36.809Z,77.75
2023-03-23T03:54:36.796Z,77.34
2023-03-23T03:55:36.846Z,77.25
2023-03-23T03:56:36.790Z,77.75
2023-03-23T03:57:36.871Z,77.79
2023-03-23T03:58:36.752Z,78.67
2023-03-23T03:59:36.747Z,78.81
2023-03-23T04:00:36.743Z,77.69
2023-03-23T04:01:36.764Z,78.09
2023-03-23T04:02:36.819Z,78.41
2023-03-23T04:03:36.709Z,78.91
2023-03-23T04:04:36.694Z,78.50
2023-03-23T04:05:36.715Z,79.02
2023-03-23T04:06:36.679Z,79.43
2023-03-23T04:07:36.693Z,79.43
2023-03-23T04:08:36.693Z,79.18
2023-03-23T04:09:36.672Z,79.18
2023-03-23T04:10:36.647Z,78.98
2023-03-23T04:11:36.619Z,78.98
2023-03-23T04:12:36.640Z,79.39
2023-03-23T04:13:36.621Z,79.39
2023-03-23T04:14:36.577Z,79.18
2023-03-23T04:15:36.600Z,79.28
2023-03-23T04:16:36.563Z,79.69
2023-03-23T04:17:36.555Z,80.30
2023-03-23T04:18:36.687Z,80.82
2023-03-23T04:19:36.551Z,80.51
2023-03-23T04:20:36.517Z,80.51
2023-03-23T04:21:36.537Z,79.39
2023-03-23T04:22:36.494Z,79.39
2023-03-23T04:23:36.543Z,79.69
2023-03-23T04:24:56.231Z,79.69
2023-03-23T04:25:36.495Z,79.28
2023-03-23T04:26:36.460Z,78.57
2023-03-23T04:27:36.484Z,78.37
2023-03-23T04:28:36.464Z,78.67
2023-03-23T04:29:36.432Z,79.08
2023-03-23T04:30:36.466Z,78.57
2023-03-23T04:31:36.461Z,78.88
2023-03-23T04:32:36.401Z,79.18
2023-03-23T04:33:59.529Z,78.88
2023-03-23T04:34:36.394Z,78.61
2023-03-23T04:35:36.612Z,78.61
2023-03-23T04:36:56.774Z,78.81
2023-03-23T04:37:36.361Z,78.91
2023-03-23T04:38:36.369Z,79.22
2023-03-23T04:39:36.277Z,78.91
2023-03-23T04:40:36.253Z,79.52
2023-03-23T04:41:36.381Z,79.83
2023-03-23T04:42:36.264Z,80.04
2023-03-23T04:43:36.252Z,79.73
2023-03-23T04:44:36.358Z,79.52
2023-03-23T04:45:36.219Z,79.63
2023-03-23T04:46:36.202Z,79.22
2023-03-23T04:47:36.226Z,79.63
2023-03-23T04:48:36.186Z,79.83
2023-03-23T04:49:36.196Z,80.14
2023-03-23T04:50:36.180Z,80.34
2023-03-23T04:51:36.160Z,79.83
2023-03-23T04:52:36.161Z,79.93
2023-03-23T04:53:36.306Z,80.04
2023-03-23T04:54:36.128Z,80.20
2023-03-23T04:55:36.118Z,80.34
2023-03-23T04:56:36.135Z,80.82
2023-03-23T04:57:36.094Z,80.61
2023-03-23T04:58:36.079Z,80.41
2023-03-23T04:59:36.092Z,79.90
2023-03-23T05:00:36.208Z,79.69
2023-03-23T05:01:36.084Z,79.69
2023-03-23T05:02:36.120Z,79.69
2023-03-23T05:03:36.079Z,79.80
2023-03-23T05:04:36.041Z,79.80
2023-03-23T05:05:35.996Z,79.80
2023-03-23T05:06:35.997Z,79.90
2023-03-23T05:07:36.008Z,79.28
2023-03-23T05:08:36.035Z,79.39
2023-03-23T05:09:35.950Z,79.80
2023-03-23T05:10:35.950Z,80.00
2023-03-23T05:11:35.959Z,80.20
2023-03-23T05:12:35.956Z,80.00
2023-03-23T05:13:35.944Z,80.30
2023-03-23T05:14:37.730Z,80.71
2023-03-23T05:15:35.901Z,81.02
2023-03-23T05:16:35.923Z,81.53
2023-03-23T05:17:35.885Z,81.98
2023-03-23T05:18:35.876Z,81.98
2023-03-23T05:19:35.840Z,82.28
2023-03-23T05:20:35.839Z,82.39
2023-03-23T05:21:35.832Z,82.39
2023-03-23T05:22:35.817Z,83.00
2023-03-23T05:23:35.825Z,83.40
2023-03-23T05:24:35.790Z,83.92
2023-03-23T05:25:35.786Z,84.22
2023-03-23T05:26:35.818Z,83.61
2023-03-23T05:27:35.759Z,83.61
2023-03-23T05:28:35.765Z,83.81
2023-03-23T05:29:35.751Z,83.61
2023-03-23T05:30:35.750Z,83.20
2023-03-23T05:31:35.727Z,83.61
2023-03-23T05:32:35.713Z,83.61
2023-03-23T05:33:35.752Z,83.81
2023-03-23T05:34:35.686Z,83.81
2023-03-23T05:35:35.727Z,82.89
2023-03-23T05:36:35.735Z,83.92
2023-03-23T05:37:35.675Z,84.22
2023-03-23T05:38:35.672Z,84.63
2023-03-23T05:39:35.625Z,84.53
2023-03-23T05:40:35.686Z,83.51
2023-03-23T05:41:35.602Z,83.92
2023-03-23T05:42:35.617Z,84.74
2023-03-23T05:43:35.616Z,84.74
2023-03-23T05:44:35.587Z,84.42
2023-03-23T05:45:35.565Z,84.53
2023-03-23T05:46:35.572Z,84.57
2023-03-23T05:47:35.607Z,84.33
2023-03-23T05:48:35.550Z,84.12
2023-03-23T05:49:35.556Z,84.57
2023-03-23T05:50:35.518Z,85.18
2023-03-23T05:51:35.540Z,85.38
2023-03-23T05:52:35.512Z,85.49
2023-03-23T05:53:35.511Z,86.20
2023-03-23T05:54:35.519Z,86.61
2023-03-23T05:55:35.465Z,86.41
2023-03-23T05:56:35.451Z,86.71
2023-03-23T05:57:35.441Z,86.71
2023-03-23T05:58:35.439Z,87.02
2023-03-23T05:59:35.463Z,87.84
2023-03-23T06:00:35.489Z,87.84
2023-03-23T06:01:35.409Z,88.04
2023-03-23T06:02:35.460Z,88.45
2023-03-23T06:03:35.383Z,89.17
2023-03-23T06:04:35.397Z,89.06
2023-03-23T06:05:35.773Z,89.37
2023-03-23T06:06:35.479Z,90.02
2023-03-23T06:07:35.452Z,90.84
2023-03-23T06:08:35.382Z,91.35
2023-03-23T06:09:35.347Z,90.84
2023-03-23T06:10:35.427Z,91.46
2023-03-23T06:11:35.289Z,92.27
2023-03-23T06:12:35.318Z,92.37
2023-03-23T06:13:35.558Z,93.13
2023-03-23T06:14:35.413Z,93.13
2023-03-23T06:15:35.241Z,94.46
2023-03-23T06:16:35.370Z,95.28
2023-03-23T06:17:35.271Z,94.97
2023-03-23T06:18:35.248Z,96.96
2023-03-23T06:19:35.220Z,97.88
2023-03-23T06:20:35.253Z,97.06
2023-03-23T06:21:35.193Z,96.55
2023-03-23T06:22:35.187Z,97.47
2023-03-23T06:23:35.180Z,98.08
2023-03-23T06:24:35.177Z,97.98
2023-03-23T06:25:35.230Z,98.49
2023-03-23T06:26:35.133Z,98.29
2023-03-23T06:27:35.171Z,98.60
2023-03-23T06:28:35.110Z,98.74
2023-03-23T06:29:35.144Z,98.95
2023-03-23T06:30:35.122Z,99.36
2023-03-23T06:31:35.141Z,99.46
2023-03-23T06:32:35.134Z,99.56
2023-03-23T06:33:35.064Z,99.77
2023-03-23T06:34:35.060Z,99.77
2023-03-23T06:35:35.071Z,99.46
2023-03-23T06:36:35.086Z,99.26
2023-03-23T06:37:35.016Z,99.36
2023-03-23T06:38:35.062Z,99.56
2023-03-23T06:39:35.055Z,99.46
2023-03-23T06:40:35.027Z,99.77
2023-03-23T06:41:34.992Z,99.66
2023-03-23T06:42:35.012Z,99.66
2023-03-23T06:43:36.544Z,99.77
2023-03-23T06:44:34.974Z,99.87
2023-03-23T06:45:34.957Z,99.41
2023-03-23T06:46:34.939Z,98.90
2023-03-23T06:47:34.989Z,99.01
2023-03-23T06:48:34.979Z,99.31
2023-03-23T06:49:34.901Z,99.62
2023-03-23T06:50:34.988Z,99.52
2023-03-23T06:51:34.867Z,99.82
2023-03-23T06:52:34.913Z,99.31
2023-03-23T06:53:34.847Z,99.52
2023-03-23T06:54:34.858Z,99.72
2023-03-23T06:55:34.867Z,99.82
2023-03-23T06:56:34.958Z,99.72
2023-03-23T06:57:34.810Z,98.49
2023-03-23T06:58:34.818Z,98.70
2023-03-23T06:59:34.857Z,99.11
2023-03-23T07:00:34.909Z,99.52
2023-03-23T07:01:34.790Z,99.62
2023-03-23T07:02:34.781Z,99.62
2023-03-23T07:03:34.748Z,99.11
2023-03-23T07:04:34.768Z,99.11
2023-03-23T07:05:34.803Z,98.90
2023-03-23T07:06:34.737Z,99.31
2023-03-23T07:07:34.960Z,98.80
2023-03-23T07:08:34.695Z,99.11
2023-03-23T07:09:42.832Z,99.21
2023-03-23T07:10:34.855Z,99.21
2023-03-23T07:11:34.698Z,99.21
2023-03-23T07:12:34.671Z,99.21
2023-03-23T07:13:34.675Z,99.31
2023-03-23T07:14:34.703Z,99.11
2023-03-23T07:15:35.697Z,99.01
2023-03-23T07:16:34.740Z,99.21
2023-03-23T07:17:34.606Z,99.31
2023-03-23T07:18:34.617Z,99.52
2023-03-23T07:19:34.618Z,99.52
2023-03-23T07:20:34.626Z,99.31
2023-03-23T07:21:34.570Z,99.31
2023-03-23T07:22:34.563Z,99.31
2023-03-23T07:23:34.599Z,99.41
2023-03-23T07:24:34.879Z,98.70
2023-03-23T07:25:34.862Z,98.70
2023-03-23T07:26:34.535Z,98.80
2023-03-23T07:27:35.593Z,98.90
2023-03-23T07:28:35.100Z,98.90
2023-03-23T07:29:34.482Z,99.01
2023-03-23T07:30:34.698Z,98.80
2023-03-23T07:31:36.434Z,98.60
2023-03-23T07:32:34.458Z,98.90
2023-03-23T07:33:34.734Z,99.21
2023-03-23T07:34:34.540Z,99.11
2023-03-23T07:35:34.417Z,99.21
2023-03-23T07:36:34.409Z,99.52
2023-03-23T07:37:34.410Z,99.01
2023-03-23T07:38:34.397Z,99.16
2023-03-23T07:39:36.357Z,99.27
2023-03-23T07:40:34.357Z,99.11
2023-03-23T07:41:34.583Z,99.01
2023-03-23T07:42:34.334Z,99.01
2023-03-23T07:43:34.337Z,99.16
2023-03-23T07:44:34.348Z,99.16
2023-03-23T07:45:34.326Z,99.06
2023-03-23T07:46:34.375Z,99.16
2023-03-23T07:47:34.420Z,99.27
2023-03-23T07:48:34.326Z,99.27
2023-03-23T07:49:34.910Z,98.45
2023-03-23T07:50:34.253Z,98.55
2023-03-23T07:51:34.262Z,98.55
2023-03-23T07:52:34.242Z,98.65
2023-03-23T07:53:34.227Z,98.45
2023-03-23T07:54:34.229Z,98.55
2023-03-23T07:55:34.219Z,98.40
2023-03-23T07:56:34.459Z,98.30
2023-03-23T07:57:34.175Z,98.20
2023-03-23T07:58:34.191Z,97.58
2023-03-23T07:59:34.222Z,97.58
2023-03-23T08:00:34.237Z,97.49
2023-03-23T08:01:34.141Z,97.49
2023-03-23T08:02:35.302Z,97.28
2023-03-23T08:03:34.112Z,97.58
2023-03-23T08:04:34.109Z,97.58
2023-03-23T08:05:34.085Z,97.69
2023-03-23T08:06:34.087Z,97.49
2023-03-23T08:07:34.097Z,97.49
2023-03-23T08:08:34.096Z,97.38
2023-03-23T08:09:34.050Z,97.58
2023-03-23T08:10:34.103Z,97.69
2023-03-23T08:11:34.051Z,97.49
2023-03-23T08:12:34.041Z,97.49
2023-03-23T08:13:34.026Z,97.49
2023-03-23T08:14:34.150Z,97.49
2023-03-23T08:15:33.983Z,97.58
2023-03-23T08:16:33.995Z,97.17
2023-03-23T08:17:33.991Z,97.38
2023-03-23T08:18:33.943Z,96.67
2023-03-23T08:19:33.948Z,96.62
2023-03-23T08:20:34.052Z,96.31
2023-03-23T08:21:33.937Z,96.31
2023-03-23T08:22:37.242Z,96.42
2023-03-23T08:23:33.952Z,96.62
2023-03-23T08:24:33.925Z,96.42
2023-03-23T08:25:33.923Z,96.42
2023-03-23T08:26:34.399Z,96.01
2023-03-23T08:27:33.935Z,96.01
2023-03-23T08:28:34.263Z,96.01
2023-03-23T08:29:33.937Z,96.21
2023-03-23T08:30:33.906Z,95.70
2023-03-23T08:31:33.914Z,96.01
2023-03-23T08:32:33.860Z,96.11
2023-03-23T08:33:33.818Z,95.60
2023-03-23T08:34:33.802Z,95.29
2023-03-23T08:35:33.846Z,95.39
2023-03-23T08:36:33.821Z,95.80
2023-03-23T08:37:33.748Z,95.29
2023-03-23T08:38:33.750Z,95.76
2023-03-23T08:39:34.750Z,95.25
2023-03-23T08:40:33.820Z,94.84
2023-03-23T08:41:33.750Z,94.94
2023-03-23T08:42:33.696Z,94.84
2023-03-23T08:43:33.690Z,94.94
2023-03-23T08:44:33.677Z,94.33
2023-03-23T08:45:33.680Z,93.82
2023-03-23T08:46:33.729Z,93.92
2023-03-23T08:47:33.643Z,93.51
2023-03-23T08:48:33.625Z,93.62
2023-03-23T08:49:33.632Z,93.62
2023-03-23T08:50:33.658Z,93.62
2023-03-23T08:51:33.600Z,93.62
2023-03-23T08:52:33.603Z,93.67
2023-03-23T08:53:33.611Z,93.16
2023-03-23T08:54:33.563Z,92.96
2023-03-23T08:55:33.563Z,92.91
2023-03-23T08:56:33.574Z,92.10
2023-03-23T08:57:33.560Z,91.79
2023-03-23T08:58:33.537Z,92.30
2023-03-23T08:59:33.547Z,91.49
2023-03-23T09:00:34.128Z,91.55
2023-03-23T09:01:33.555Z,91.44
2023-03-23T09:02:33.516Z,91.03
2023-03-23T09:03:33.478Z,90.42
2023-03-23T09:04:33.481Z,90.94
2023-03-23T09:05:33.462Z,90.73
2023-03-23T09:06:34.082Z,90.53
2023-03-23T09:07:33.571Z,90.01
2023-03-23T09:08:33.451Z,89.63
2023-03-23T09:09:33.418Z,88.46
2023-03-23T09:10:33.403Z,87.41
2023-03-23T09:11:33.414Z,86.49
2023-03-23T09:12:39.423Z,86.22
2023-03-23T09:13:33.400Z,87.65
2023-03-23T09:14:35.033Z,86.63
2023-03-23T09:15:37.001Z,88.10
2023-03-23T09:16:33.337Z,88.40
2023-03-23T09:17:33.326Z,88.31
2023-03-23T09:18:33.382Z,88.92
2023-03-23T09:19:33.309Z,88.61
2023-03-23T09:20:33.302Z,88.85
2023-03-23T09:21:33.334Z,88.45
2023-03-23T09:22:33.324Z,88.75
2023-03-23T09:23:33.265Z,88.34
2023-03-23T09:24:33.323Z,88.85
2023-03-23T09:25:33.252Z,88.65
2023-03-23T09:26:33.297Z,88.65
2023-03-23T09:27:33.236Z,88.55
2023-03-23T09:28:33.218Z,88.24
2023-03-23T09:29:33.197Z,88.75
2023-03-23T09:30:34.492Z,88.96
2023-03-23T09:31:33.186Z,89.12
2023-03-23T09:32:33.208Z,88.40
2023-03-23T09:33:33.210Z,88.10
2023-03-23T09:34:33.141Z,87.38
2023-03-23T09:35:33.233Z,87.69
2023-03-23T09:36:33.247Z,87.38
2023-03-23T09:37:33.156Z,87.75
2023-03-23T09:38:33.108Z,87.41
2023-03-23T09:39:33.110Z,85.98
2023-03-23T09:40:33.086Z,85.78
2023-03-23T09:41:33.084Z,85.33
2023-03-23T09:42:33.085Z,84.68
2023-03-23T09:43:33.078Z,82.78
2023-03-23T09:44:33.049Z,81.52
2023-03-23T09:45:33.060Z,80.66
2023-03-23T09:46:33.122Z,80.22
2023-03-23T09:47:33.018Z,78.26
2023-03-23T09:48:33.006Z,78.46
2023-03-23T09:49:33.046Z,78.36
2023-03-23T09:50:32.971Z,79.72
2023-03-23T09:51:33.023Z,79.21
2023-03-23T09:52:32.982Z,78.16
2023-03-23T09:53:32.952Z,79.04
2023-03-23T09:54:32.967Z,79.04
2023-03-23T09:55:32.920Z,78.91
2023-03-23T09:56:32.936Z,79.07
2023-03-23T09:57:32.929Z,77.99
2023-03-23T09:58:32.915Z,78.30
2023-03-23T09:59:32.908Z,78.53
2023-03-23T10:00:32.913Z,78.70
2023-03-23T10:01:32.891Z,78.70
2023-03-23T10:02:32.856Z,78.09
2023-03-23T10:03:32.884Z,78.53
2023-03-23T10:04:32.822Z,79.04
2023-03-23T10:05:32.822Z,78.88
2023-03-23T10:06:34.108Z,79.90
2023-03-23T10:07:32.842Z,80.33
2023-03-23T10:08:32.777Z,80.54
2023-03-23T10:09:32.774Z,80.13
2023-03-23T10:10:32.783Z,79.86
2023-03-23T10:11:32.782Z,80.58
2023-03-23T10:12:32.763Z,80.78
2023-03-23T10:13:32.815Z,80.37
2023-03-23T10:14:32.745Z,80.68
2023-03-23T10:15:32.769Z,80.88
2023-03-23T10:16:32.709Z,81.09
2023-03-23T10:17:32.745Z,80.68
2023-03-23T10:18:32.693Z,80.68
2023-03-23T10:19:32.678Z,80.58
2023-03-23T10:20:32.652Z,80.78
2023-03-23T10:21:32.655Z,80.33
2023-03-23T10:22:32.692Z,79.42
2023-03-23T10:23:32.762Z,79.52
2023-03-23T10:24:32.650Z,79.12
2023-03-23T10:25:32.636Z,79.63
2023-03-23T10:26:32.600Z,79.28
2023-03-23T10:27:32.585Z,78.98
2023-03-23T10:28:32.614Z,78.17
2023-03-23T10:29:32.577Z,78.17
2023-03-23T10:30:32.561Z,78.17
2023-03-23T10:31:32.570Z,78.33
2023-03-23T10:32:32.600Z,77.12
2023-03-23T10:33:32.545Z,77.42
2023-03-23T10:34:32.531Z,77.22
2023-03-23T10:35:32.556Z,76.20
2023-03-23T10:36:32.487Z,77.18
2023-03-23T10:37:32.528Z,76.33
2023-03-23T10:38:32.473Z,75.59
2023-03-23T10:39:32.478Z,74.98
2023-03-23T10:40:32.458Z,74.91
2023-03-23T10:41:32.444Z,75.32
2023-03-23T10:42:32.441Z,75.42
2023-03-23T10:43:32.450Z,74.91
2023-03-23T10:44:32.465Z,74.95
2023-03-23T10:45:32.420Z,75.93
2023-03-23T10:46:34.399Z,75.62
2023-03-23T10:47:32.415Z,75.12
2023-03-23T10:48:32.376Z,74.74
2023-03-23T10:49:32.396Z,75.05
2023-03-23T10:50:32.342Z,76.00
2023-03-23T10:51:32.346Z,76.00
2023-03-23T10:52:32.325Z,75.70
2023-03-23T10:53:32.324Z,76.40
2023-03-23T10:54:32.289Z,76.71
2023-03-23T10:55:32.332Z,76.20
2023-03-23T10:56:36.410Z,76.40
2023-03-23T10:57:32.301Z,76.40
2023-03-23T10:58:32.303Z,76.10
2023-03-23T10:59:32.258Z,76.40
2023-03-23T11:00:32.226Z,75.90
2023-03-23T11:01:32.233Z,76.31
2023-03-23T11:02:32.287Z,76.20
2023-03-23T11:03:32.243Z,76.20
2023-03-23T11:04:32.198Z,76.10
2023-03-23T11:05:32.195Z,76.31
2023-03-23T11:06:32.166Z,75.79
2023-03-23T11:07:32.197Z,75.90
2023-03-23T11:08:32.255Z,75.90
2023-03-23T11:09:32.137Z,75.49
2023-03-23T11:10:32.139Z,75.79
2023-03-23T11:11:32.160Z,75.19
2023-03-23T11:12:32.118Z,75.19
2023-03-23T11:13:32.139Z,75.35
2023-03-23T11:14:32.102Z,75.29
2023-03-23T11:15:32.079Z,75.49
2023-03-23T11:16:32.061Z,75.49
2023-03-23T11:17:32.064Z,75.49
2023-03-23T11:18:32.091Z,77.18
2023-03-23T11:19:32.029Z,75.66
2023-03-23T11:20:32.044Z,76.23
2023-03-23T11:21:32.013Z,74.91
2023-03-23T11:22:32.014Z,74.71
2023-03-23T11:23:32.014Z,75.01
2023-03-23T11:24:31.972Z,74.61
2023-03-23T11:25:32.124Z,73.80
2023-03-23T11:26:31.986Z,74.10
2023-03-23T11:27:31.963Z,74.21
2023-03-23T11:28:31.971Z,73.56
2023-03-23T11:29:31.948Z,73.36
2023-03-23T11:30:31.908Z,72.96
2023-03-23T11:31:31.917Z,72.45
2023-03-23T11:32:31.906Z,72.85
2023-03-23T11:33:31.925Z,73.05
2023-03-23T11:34:31.870Z,72.24
2023-03-23T11:35:31.932Z,71.84
2023-03-23T11:36:31.838Z,71.97
2023-03-23T11:37:31.859Z,72.38
2023-03-23T11:38:31.838Z,72.75
2023-03-23T11:39:31.832Z,72.75
2023-03-23T11:40:31.828Z,72.34
2023-03-23T11:41:31.824Z,71.33
2023-03-23T11:42:31.791Z,71.94
2023-03-23T11:43:31.807Z,72.34
2023-03-23T11:44:31.756Z,72.04
2023-03-23T11:45:31.788Z,72.01
2023-03-23T11:46:31.749Z,71.91
2023-03-23T11:47:31.744Z,71.26
2023-03-23T11:48:31.754Z,70.65
2023-03-23T11:49:33.574Z,70.56
2023-03-23T11:50:31.697Z,69.85
2023-03-23T11:51:31.686Z,69.85
2023-03-23T11:52:31.693Z,69.95
2023-03-23T11:53:31.724Z,69.95
2023-03-23T11:54:31.702Z,69.95
2023-03-23T11:55:31.697Z,70.36
2023-03-23T11:56:31.628Z,70.25
2023-03-23T11:57:32.315Z,70.22
2023-03-23T11:58:31.642Z,69.81
2023-03-23T11:59:31.609Z,69.51
2023-03-23T12:00:31.612Z,69.48
2023-03-23T12:01:31.572Z,69.27
2023-03-23T12:02:31.578Z,68.67
2023-03-23T12:03:31.635Z,68.43
2023-03-23T12:04:31.605Z,67.63
2023-03-23T12:05:31.547Z,67.83
2023-03-23T12:06:31.703Z,68.33
2023-03-23T12:07:31.540Z,67.83
2023-03-23T12:08:31.570Z,68.23
2023-03-23T12:09:31.515Z,68.16
2023-03-23T12:10:40.678Z,68.37
2023-03-23T12:11:31.500Z,68.26
2023-03-23T12:12:31.458Z,68.26
2023-03-23T12:13:31.468Z,68.06
2023-03-23T12:14:36.552Z,67.96
2023-03-23T12:15:31.436Z,67.93
2023-03-23T12:16:31.414Z,67.66
2023-03-23T12:17:31.422Z,67.76
2023-03-23T12:18:31.402Z,68.06
2023-03-23T12:19:31.398Z,67.86
2023-03-23T12:20:37.640Z,68.19
2023-03-23T12:21:31.363Z,68.19
2023-03-23T12:22:31.353Z,68.70
2023-03-23T12:23:31.357Z,68.80
2023-03-23T12:24:31.361Z,67.99
2023-03-23T12:25:31.328Z,68.19
2023-03-23T12:26:31.312Z,68.50
2023-03-23T12:27:31.350Z,68.60
2023-03-23T12:28:31.290Z,68.30
2023-03-23T12:29:31.312Z,68.40
2023-03-23T12:30:31.264Z,68.80
2023-03-23T12:31:31.260Z,68.50
2023-03-23T12:32:31.321Z,68.80
2023-03-23T12:33:31.277Z,68.50
2023-03-23T12:34:31.235Z,68.70
2023-03-23T12:35:31.241Z,68.80
2023-03-23T12:36:31.217Z,68.60
2023-03-23T12:37:31.287Z,68.40
2023-03-23T12:38:31.186Z,68.50
2023-03-23T12:39:31.197Z,68.19
2023-03-23T12:40:31.175Z,67.82
2023-03-23T12:41:31.152Z,68.13
2023-03-23T12:42:31.174Z,67.62
2023-03-23T12:43:31.141Z,68.13
2023-03-23T12:44:31.193Z,68.33
2023-03-23T12:45:31.121Z,68.13
2023-03-23T12:46:31.089Z,68.23
2023-03-23T12:47:31.083Z,67.82
2023-03-23T12:48:31.093Z,68.33
2023-03-23T12:49:31.089Z,68.33
2023-03-23T12:50:31.105Z,68.33
2023-03-23T12:51:31.075Z,68.23
2023-03-23T12:52:31.057Z,68.94